sensor_id;sensor_type;location;lat;lon;timestamp;P1;durP1;ratioP1;P2;durP2;ratioP2
18200;SDS011;9226;47.858;9.594;2023-02-23T00:03:49;33.40;;;15.00;;
18200;SDS011;9226;47.858;9.594;2023-02-23T00:06:16;35.23;;;14.50;;
18200;SDS011;9226;47.858;9.594;2023-02-23T00:08:42;32.53;;;14.03;;
18200;SDS011;9226;47.858;9.594;2023-02-23T00:11:09;33.60;;;13.63;;
18200;SDS011;9226;47.858;9.594;2023-02-23T00:13:38;36.03;;;14.70;;
18200;SDS011;9226;47.858;9.594;2023-02-23T00:16:05;37.23;;;15.23;;
18200;SDS011;9226;47.858;9.594;2023-02-23T00:18:32;36.47;;;14.73;;
18200;SDS011;9226;47.858;9.594;2023-02-23T00:21:09;36.53;;;14.67;;
18200;SDS011;9226;47.858;9.594;2023-02-23T00:23:39;35.20;;;14.83;;
18200;SDS011;9226;47.858;9.594;2023-02-23T00:26:05;39.20;;;15.27;;
18200;SDS011;9226;47.858;9.594;2023-02-23T00:28:31;36.67;;;15.60;;
18200;SDS011;9226;47.858;9.594;2023-02-23T00:30:57;38.20;;;16.10;;
18200;SDS011;9226;47.858;9.594;2023-02-23T00:33:22;37.07;;;15.60;;
18200;SDS011;9226;47.858;9.594;2023-02-23T00:35:47;43.83;;;16.83;;
18200;SDS011;9226;47.858;9.594;2023-02-23T00:38:14;32.90;;;15.63;;
18200;SDS011;9226;47.858;9.594;2023-02-23T00:40:39;35.13;;;15.33;;
18200;SDS011;9226;47.858;9.594;2023-02-23T00:43:05;50.03;;;15.80;;
18200;SDS011;9226;47.858;9.594;2023-02-23T00:45:30;36.07;;;16.27;;
18200;SDS011;9226;47.858;9.594;2023-02-23T00:47:56;38.23;;;16.87;;
18200;SDS011;9226;47.858;9.594;2023-02-23T00:50:21;38.33;;;15.53;;
18200;SDS011;9226;47.858;9.594;2023-02-23T00:52:47;39.03;;;16.60;;
18200;SDS011;9226;47.858;9.594;2023-02-23T00:55:13;34.87;;;15.90;;
18200;SDS011;9226;47.858;9.594;2023-02-23T00:57:39;35.30;;;15.23;;
18200;SDS011;9226;47.858;9.594;2023-02-23T01:00:05;40.17;;;14.70;;
18200;SDS011;9226;47.858;9.594;2023-02-23T01:02:44;42.63;;;17.17;;
18200;SDS011;9226;47.858;9.594;2023-02-23T01:05:13;37.70;;;16.07;;
18200;SDS011;9226;47.858;9.594;2023-02-23T01:07:40;36.90;;;14.83;;
18200;SDS011;9226;47.858;9.594;2023-02-23T01:10:06;42.97;;;17.37;;
18200;SDS011;9226;47.858;9.594;2023-02-23T01:12:44;40.27;;;17.00;;
18200;SDS011;9226;47.858;9.594;2023-02-23T01:15:13;33.47;;;15.30;;
18200;SDS011;9226;47.858;9.594;2023-02-23T01:17:39;42.53;;;16.53;;
18200;SDS011;9226;47.858;9.594;2023-02-23T01:20:05;38.57;;;16.77;;
18200;SDS011;9226;47.858;9.594;2023-02-23T01:22:47;40.30;;;17.37;;
18200;SDS011;9226;47.858;9.594;2023-02-23T01:25:13;44.03;;;18.20;;
18200;SDS011;9226;47.858;9.594;2023-02-23T01:27:40;38.73;;;16.87;;
18200;SDS011;9226;47.858;9.594;2023-02-23T01:30:06;39.87;;;17.53;;
18200;SDS011;9226;47.858;9.594;2023-02-23T01:32:33;43.13;;;17.20;;
18200;SDS011;9226;47.858;9.594;2023-02-23T01:35:01;39.20;;;17.53;;
18200;SDS011;9226;47.858;9.594;2023-02-23T01:37:32;41.00;;;16.43;;
18200;SDS011;9226;47.858;9.594;2023-02-23T01:39:59;40.40;;;17.10;;
18200;SDS011;9226;47.858;9.594;2023-02-23T01:42:30;40.27;;;17.27;;
18200;SDS011;9226;47.858;9.594;2023-02-23T01:48:00;46.20;;;20.57;;
18200;SDS011;9226;47.858;9.594;2023-02-23T01:50:30;47.63;;;18.50;;
18200;SDS011;9226;47.858;9.594;2023-02-23T01:53:01;45.83;;;18.67;;
18200;SDS011;9226;47.858;9.594;2023-02-23T01:55:27;44.57;;;17.73;;
18200;SDS011;9226;47.858;9.594;2023-02-23T01:57:55;41.70;;;18.67;;
18200;SDS011;9226;47.858;9.594;2023-02-23T02:00:24;46.83;;;18.30;;
18200;SDS011;9226;47.858;9.594;2023-02-23T02:02:51;45.17;;;18.17;;
18200;SDS011;9226;47.858;9.594;2023-02-23T02:05:16;44.37;;;18.43;;
18200;SDS011;9226;47.858;9.594;2023-02-23T02:07:44;42.77;;;17.97;;
18200;SDS011;9226;47.858;9.594;2023-02-23T02:10:12;48.93;;;18.60;;
18200;SDS011;9226;47.858;9.594;2023-02-23T02:12:39;42.50;;;17.70;;
18200;SDS011;9226;47.858;9.594;2023-02-23T02:15:06;42.67;;;17.97;;
18200;SDS011;9226;47.858;9.594;2023-02-23T02:45:12;44.43;;;16.47;;
18200;SDS011;9226;47.858;9.594;2023-02-23T02:47:48;41.17;;;15.37;;
18200;SDS011;9226;47.858;9.594;2023-02-23T02:50:22;41.93;;;16.13;;
18200;SDS011;9226;47.858;9.594;2023-02-23T02:53:22;48.67;;;18.73;;
18200;SDS011;9226;47.858;9.594;2023-02-23T02:56:02;53.03;;;19.63;;
18200;SDS011;9226;47.858;9.594;2023-02-23T02:58:30;43.60;;;18.53;;
18200;SDS011;9226;47.858;9.594;2023-02-23T03:01:03;39.70;;;17.47;;
18200;SDS011;9226;47.858;9.594;2023-02-23T03:03:49;40.87;;;18.03;;
18200;SDS011;9226;47.858;9.594;2023-02-23T03:06:44;47.60;;;19.00;;
18200;SDS011;9226;47.858;9.594;2023-02-23T03:12:40;51.70;;;19.13;;
18200;SDS011;9226;47.858;9.594;2023-02-23T03:21:27;45.03;;;18.13;;
18200;SDS011;9226;47.858;9.594;2023-02-23T03:24:30;51.20;;;19.60;;
18200;SDS011;9226;47.858;9.594;2023-02-23T03:30:59;55.67;;;21.03;;
18200;SDS011;9226;47.858;9.594;2023-02-23T03:37:38;51.80;;;19.73;;
18200;SDS011;9226;47.858;9.594;2023-02-23T03:40:04;59.47;;;20.83;;
18200;SDS011;9226;47.858;9.594;2023-02-23T03:42:50;56.40;;;20.13;;
18200;SDS011;9226;47.858;9.594;2023-02-23T03:45:38;58.23;;;21.23;;
18200;SDS011;9226;47.858;9.594;2023-02-23T03:48:23;55.63;;;21.00;;
18200;SDS011;9226;47.858;9.594;2023-02-23T03:51:09;48.90;;;20.20;;
18200;SDS011;9226;47.858;9.594;2023-02-23T03:56:52;47.40;;;20.13;;
18200;SDS011;9226;47.858;9.594;2023-02-23T03:59:40;54.83;;;20.90;;
18200;SDS011;9226;47.858;9.594;2023-02-23T04:02:29;56.37;;;21.03;;
18200;SDS011;9226;47.858;9.594;2023-02-23T04:05:17;53.07;;;22.13;;
18200;SDS011;9226;47.858;9.594;2023-02-23T04:08:06;61.10;;;21.93;;
18200;SDS011;9226;47.858;9.594;2023-02-23T04:10:59;58.13;;;22.23;;
18200;SDS011;9226;47.858;9.594;2023-02-23T04:13:55;57.40;;;22.70;;
18200;SDS011;9226;47.858;9.594;2023-02-23T04:16:24;58.47;;;22.07;;
18200;SDS011;9226;47.858;9.594;2023-02-23T04:18:52;55.80;;;21.17;;
18200;SDS011;9226;47.858;9.594;2023-02-23T04:21:17;61.97;;;21.57;;
18200;SDS011;9226;47.858;9.594;2023-02-23T04:23:42;58.17;;;21.90;;
18200;SDS011;9226;47.858;9.594;2023-02-23T04:26:08;60.03;;;22.67;;
18200;SDS011;9226;47.858;9.594;2023-02-23T04:28:34;55.07;;;21.73;;
18200;SDS011;9226;47.858;9.594;2023-02-23T04:30:59;54.13;;;22.10;;
18200;SDS011;9226;47.858;9.594;2023-02-23T04:33:26;54.23;;;21.97;;
18200;SDS011;9226;47.858;9.594;2023-02-23T04:35:54;51.13;;;21.03;;
18200;SDS011;9226;47.858;9.594;2023-02-23T04:38:20;51.40;;;22.00;;
18200;SDS011;9226;47.858;9.594;2023-02-23T04:40:48;58.43;;;22.30;;
18200;SDS011;9226;47.858;9.594;2023-02-23T04:43:14;55.87;;;21.53;;
18200;SDS011;9226;47.858;9.594;2023-02-23T04:45:39;51.57;;;20.63;;
18200;SDS011;9226;47.858;9.594;2023-02-23T04:48:05;60.80;;;22.70;;
18200;SDS011;9226;47.858;9.594;2023-02-23T04:50:31;55.20;;;21.20;;
18200;SDS011;9226;47.858;9.594;2023-02-23T04:52:56;62.10;;;22.50;;
18200;SDS011;9226;47.858;9.594;2023-02-23T04:55:22;54.07;;;21.23;;
18200;SDS011;9226;47.858;9.594;2023-02-23T04:57:49;54.13;;;21.23;;
18200;SDS011;9226;47.858;9.594;2023-02-23T05:00:16;50.67;;;20.80;;
18200;SDS011;9226;47.858;9.594;2023-02-23T05:02:42;55.83;;;21.23;;
18200;SDS011;9226;47.858;9.594;2023-02-23T05:05:09;48.60;;;20.27;;
18200;SDS011;9226;47.858;9.594;2023-02-23T05:07:35;55.93;;;21.37;;
18200;SDS011;9226;47.858;9.594;2023-02-23T05:10:01;48.77;;;20.80;;
18200;SDS011;9226;47.858;9.594;2023-02-23T05:12:27;52.77;;;20.33;;
18200;SDS011;9226;47.858;9.594;2023-02-23T05:14:53;52.83;;;20.17;;
18200;SDS011;9226;47.858;9.594;2023-02-23T05:17:18;53.57;;;20.07;;
18200;SDS011;9226;47.858;9.594;2023-02-23T05:19:43;53.70;;;21.47;;
18200;SDS011;9226;47.858;9.594;2023-02-23T05:22:09;49.40;;;20.40;;
18200;SDS011;9226;47.858;9.594;2023-02-23T05:24:37;54.00;;;20.13;;
18200;SDS011;9226;47.858;9.594;2023-02-23T05:27:03;57.90;;;22.33;;
18200;SDS011;9226;47.858;9.594;2023-02-23T05:29:29;54.13;;;22.07;;
18200;SDS011;9226;47.858;9.594;2023-02-23T05:31:54;51.63;;;20.07;;
18200;SDS011;9226;47.858;9.594;2023-02-23T05:34:19;52.10;;;21.53;;
18200;SDS011;9226;47.858;9.594;2023-02-23T05:36:45;52.10;;;21.67;;
18200;SDS011;9226;47.858;9.594;2023-02-23T05:39:10;46.33;;;19.37;;
18200;SDS011;9226;47.858;9.594;2023-02-23T05:41:35;48.57;;;19.90;;
18200;SDS011;9226;47.858;9.594;2023-02-23T05:44:01;52.77;;;19.53;;
18200;SDS011;9226;47.858;9.594;2023-02-23T05:46:26;53.47;;;20.03;;
18200;SDS011;9226;47.858;9.594;2023-02-23T05:48:57;53.47;;;20.47;;
18200;SDS011;9226;47.858;9.594;2023-02-23T05:51:25;47.57;;;19.63;;
18200;SDS011;9226;47.858;9.594;2023-02-23T05:53:52;46.57;;;18.63;;
18200;SDS011;9226;47.858;9.594;2023-02-23T05:56:17;47.47;;;19.17;;
18200;SDS011;9226;47.858;9.594;2023-02-23T05:58:50;51.77;;;19.80;;
18200;SDS011;9226;47.858;9.594;2023-02-23T06:01:18;52.50;;;19.13;;
18200;SDS011;9226;47.858;9.594;2023-02-23T06:03:44;47.17;;;18.40;;
18200;SDS011;9226;47.858;9.594;2023-02-23T06:06:10;54.07;;;20.67;;
18200;SDS011;9226;47.858;9.594;2023-02-23T06:08:36;48.10;;;20.27;;
18200;SDS011;9226;47.858;9.594;2023-02-23T06:11:02;47.97;;;19.23;;
18200;SDS011;9226;47.858;9.594;2023-02-23T06:13:28;49.63;;;19.40;;
18200;SDS011;9226;47.858;9.594;2023-02-23T06:15:54;45.73;;;17.73;;
18200;SDS011;9226;47.858;9.594;2023-02-23T06:18:19;44.83;;;18.37;;
18200;SDS011;9226;47.858;9.594;2023-02-23T06:20:45;48.87;;;18.83;;
18200;SDS011;9226;47.858;9.594;2023-02-23T06:23:11;44.53;;;17.40;;
18200;SDS011;9226;47.858;9.594;2023-02-23T06:25:37;44.83;;;17.67;;
18200;SDS011;9226;47.858;9.594;2023-02-23T06:28:02;47.03;;;18.10;;
18200;SDS011;9226;47.858;9.594;2023-02-23T06:30:28;47.27;;;16.90;;
18200;SDS011;9226;47.858;9.594;2023-02-23T06:32:53;44.50;;;17.63;;
18200;SDS011;9226;47.858;9.594;2023-02-23T06:35:19;40.77;;;17.10;;
18200;SDS011;9226;47.858;9.594;2023-02-23T06:37:44;42.70;;;17.37;;
18200;SDS011;9226;47.858;9.594;2023-02-23T06:40:10;37.10;;;17.37;;
18200;SDS011;9226;47.858;9.594;2023-02-23T06:42:36;43.03;;;17.93;;
18200;SDS011;9226;47.858;9.594;2023-02-23T06:45:02;43.13;;;17.63;;
18200;SDS011;9226;47.858;9.594;2023-02-23T06:47:28;43.13;;;17.47;;
18200;SDS011;9226;47.858;9.594;2023-02-23T06:49:53;42.67;;;17.23;;
18200;SDS011;9226;47.858;9.594;2023-02-23T06:52:19;38.23;;;17.13;;
18200;SDS011;9226;47.858;9.594;2023-02-23T06:54:45;43.77;;;17.10;;
18200;SDS011;9226;47.858;9.594;2023-02-23T06:57:12;48.10;;;18.00;;
18200;SDS011;9226;47.858;9.594;2023-02-23T06:59:38;44.13;;;17.10;;
18200;SDS011;9226;47.858;9.594;2023-02-23T07:02:03;42.83;;;17.27;;
18200;SDS011;9226;47.858;9.594;2023-02-23T07:04:29;43.80;;;18.23;;
18200;SDS011;9226;47.858;9.594;2023-02-23T07:06:55;43.67;;;17.80;;
18200;SDS011;9226;47.858;9.594;2023-02-23T07:09:20;38.90;;;16.63;;
18200;SDS011;9226;47.858;9.594;2023-02-23T07:11:46;43.00;;;16.27;;
18200;SDS011;9226;47.858;9.594;2023-02-23T07:14:11;43.37;;;17.33;;
18200;SDS011;9226;47.858;9.594;2023-02-23T07:16:37;44.97;;;17.90;;
18200;SDS011;9226;47.858;9.594;2023-02-23T07:19:04;45.63;;;18.43;;
18200;SDS011;9226;47.858;9.594;2023-02-23T07:21:30;36.70;;;16.53;;
18200;SDS011;9226;47.858;9.594;2023-02-23T07:23:56;41.83;;;17.43;;
18200;SDS011;9226;47.858;9.594;2023-02-23T07:26:22;48.17;;;17.83;;
18200;SDS011;9226;47.858;9.594;2023-02-23T07:28:47;39.97;;;16.67;;
18200;SDS011;9226;47.858;9.594;2023-02-23T07:31:13;45.77;;;18.80;;
18200;SDS011;9226;47.858;9.594;2023-02-23T07:33:38;39.93;;;17.43;;
18200;SDS011;9226;47.858;9.594;2023-02-23T07:36:04;40.70;;;16.83;;
18200;SDS011;9226;47.858;9.594;2023-02-23T07:38:29;42.77;;;17.70;;
18200;SDS011;9226;47.858;9.594;2023-02-23T07:40:55;36.80;;;16.03;;
18200;SDS011;9226;47.858;9.594;2023-02-23T07:43:20;40.07;;;17.13;;
18200;SDS011;9226;47.858;9.594;2023-02-23T07:45:47;42.10;;;17.20;;
18200;SDS011;9226;47.858;9.594;2023-02-23T07:48:12;41.70;;;16.80;;
18200;SDS011;9226;47.858;9.594;2023-02-23T07:50:39;47.87;;;18.23;;
18200;SDS011;9226;47.858;9.594;2023-02-23T07:53:05;42.03;;;17.70;;
18200;SDS011;9226;47.858;9.594;2023-02-23T07:55:30;42.83;;;17.53;;
18200;SDS011;9226;47.858;9.594;2023-02-23T07:57:56;43.17;;;17.03;;
18200;SDS011;9226;47.858;9.594;2023-02-23T08:00:21;41.37;;;17.97;;
18200;SDS011;9226;47.858;9.594;2023-02-23T08:02:48;40.13;;;16.73;;
18200;SDS011;9226;47.858;9.594;2023-02-23T08:05:14;40.13;;;17.20;;
18200;SDS011;9226;47.858;9.594;2023-02-23T08:07:40;34.33;;;15.90;;
18200;SDS011;9226;47.858;9.594;2023-02-23T08:10:06;41.77;;;16.40;;
18200;SDS011;9226;47.858;9.594;2023-02-23T08:12:31;39.93;;;16.20;;
18200;SDS011;9226;47.858;9.594;2023-02-23T08:14:58;39.43;;;16.43;;
18200;SDS011;9226;47.858;9.594;2023-02-23T08:17:23;39.43;;;16.50;;
18200;SDS011;9226;47.858;9.594;2023-02-23T08:19:49;36.30;;;16.23;;
18200;SDS011;9226;47.858;9.594;2023-02-23T08:22:14;42.50;;;17.20;;
18200;SDS011;9226;47.858;9.594;2023-02-23T08:24:40;36.40;;;15.60;;
18200;SDS011;9226;47.858;9.594;2023-02-23T08:27:05;33.17;;;15.37;;
18200;SDS011;9226;47.858;9.594;2023-02-23T08:29:30;35.23;;;15.17;;
18200;SDS011;9226;47.858;9.594;2023-02-23T08:31:56;35.13;;;14.03;;
18200;SDS011;9226;47.858;9.594;2023-02-23T08:34:28;32.70;;;14.90;;
18200;SDS011;9226;47.858;9.594;2023-02-23T08:36:56;32.53;;;14.03;;
18200;SDS011;9226;47.858;9.594;2023-02-23T08:39:21;32.53;;;14.27;;
18200;SDS011;9226;47.858;9.594;2023-02-23T08:41:47;31.07;;;13.57;;
18200;SDS011;9226;47.858;9.594;2023-02-23T08:44:12;31.10;;;12.67;;
18200;SDS011;9226;47.858;9.594;2023-02-23T08:46:37;31.97;;;13.67;;
18200;SDS011;9226;47.858;9.594;2023-02-23T08:49:03;38.87;;;16.87;;
18200;SDS011;9226;47.858;9.594;2023-02-23T08:51:30;43.37;;;16.83;;
18200;SDS011;9226;47.858;9.594;2023-02-23T08:53:56;31.20;;;13.43;;
18200;SDS011;9226;47.858;9.594;2023-02-23T08:56:21;34.93;;;15.57;;
18200;SDS011;9226;47.858;9.594;2023-02-23T08:58:49;41.33;;;16.20;;
18200;SDS011;9226;47.858;9.594;2023-02-23T09:01:16;34.73;;;16.20;;
18200;SDS011;9226;47.858;9.594;2023-02-23T09:03:43;32.83;;;14.67;;
18200;SDS011;9226;47.858;9.594;2023-02-23T09:06:10;31.47;;;14.87;;
18200;SDS011;9226;47.858;9.594;2023-02-23T09:08:38;38.00;;;16.17;;
18200;SDS011;9226;47.858;9.594;2023-02-23T09:11:04;30.30;;;15.20;;
18200;SDS011;9226;47.858;9.594;2023-02-23T09:13:30;31.20;;;13.20;;
18200;SDS011;9226;47.858;9.594;2023-02-23T09:15:55;26.80;;;12.27;;
18200;SDS011;9226;47.858;9.594;2023-02-23T09:18:21;30.90;;;13.43;;
18200;SDS011;9226;47.858;9.594;2023-02-23T09:20:48;26.30;;;12.53;;
18200;SDS011;9226;47.858;9.594;2023-02-23T09:23:14;25.50;;;11.70;;
18200;SDS011;9226;47.858;9.594;2023-02-23T09:25:40;24.30;;;11.57;;
18200;SDS011;9226;47.858;9.594;2023-02-23T09:28:08;23.50;;;10.90;;
18200;SDS011;9226;47.858;9.594;2023-02-23T09:30:36;26.27;;;11.47;;
18200;SDS011;9226;47.858;9.594;2023-02-23T09:33:01;26.67;;;12.17;;
18200;SDS011;9226;47.858;9.594;2023-02-23T09:35:27;27.93;;;13.13;;
18200;SDS011;9226;47.858;9.594;2023-02-23T09:37:53;28.27;;;14.07;;
18200;SDS011;9226;47.858;9.594;2023-02-23T09:40:24;28.53;;;13.20;;
18200;SDS011;9226;47.858;9.594;2023-02-23T09:42:56;29.13;;;13.13;;
18200;SDS011;9226;47.858;9.594;2023-02-23T09:50:41;25.67;;;11.50;;
18200;SDS011;9226;47.858;9.594;2023-02-23T09:53:30;23.70;;;12.37;;
18200;SDS011;9226;47.858;9.594;2023-02-23T09:56:01;25.50;;;10.90;;
18200;SDS011;9226;47.858;9.594;2023-02-23T09:58:32;23.13;;;10.53;;
18200;SDS011;9226;47.858;9.594;2023-02-23T10:06:30;21.67;;;10.63;;
18200;SDS011;9226;47.858;9.594;2023-02-23T10:09:05;25.83;;;11.57;;
18200;SDS011;9226;47.858;9.594;2023-02-23T10:11:52;19.03;;;9.73;;
18200;SDS011;9226;47.858;9.594;2023-02-23T10:14:22;27.60;;;11.03;;
18200;SDS011;9226;47.858;9.594;2023-02-23T10:17:02;25.77;;;11.87;;
18200;SDS011;9226;47.858;9.594;2023-02-23T10:22:06;24.73;;;10.57;;
18200;SDS011;9226;47.858;9.594;2023-02-23T10:24:40;21.93;;;10.43;;
18200;SDS011;9226;47.858;9.594;2023-02-23T10:27:11;22.20;;;9.77;;
18200;SDS011;9226;47.858;9.594;2023-02-23T10:35:04;16.13;;;9.03;;
18200;SDS011;9226;47.858;9.594;2023-02-23T10:37:36;18.57;;;9.90;;
18200;SDS011;9226;47.858;9.594;2023-02-23T10:40:02;15.93;;;8.60;;
18200;SDS011;9226;47.858;9.594;2023-02-23T10:42:29;19.10;;;9.10;;
18200;SDS011;9226;47.858;9.594;2023-02-23T10:44:56;22.20;;;9.80;;
18200;SDS011;9226;47.858;9.594;2023-02-23T10:47:26;20.73;;;9.17;;
18200;SDS011;9226;47.858;9.594;2023-02-23T10:49:55;17.10;;;8.53;;
18200;SDS011;9226;47.858;9.594;2023-02-23T10:52:34;18.20;;;8.77;;
18200;SDS011;9226;47.858;9.594;2023-02-23T11:27:26;18.87;;;8.93;;
18200;SDS011;9226;47.858;9.594;2023-02-23T11:29:53;18.50;;;8.30;;
18200;SDS011;9226;47.858;9.594;2023-02-23T11:35:23;17.97;;;8.27;;
18200;SDS011;9226;47.858;9.594;2023-02-23T11:37:52;15.00;;;7.87;;
18200;SDS011;9226;47.858;9.594;2023-02-23T11:45:30;16.60;;;7.47;;
18200;SDS011;9226;47.858;9.594;2023-02-23T11:48:01;16.07;;;7.73;;
18200;SDS011;9226;47.858;9.594;2023-02-23T11:50:29;16.53;;;8.03;;
18200;SDS011;9226;47.858;9.594;2023-02-23T11:53:05;14.13;;;7.67;;
18200;SDS011;9226;47.858;9.594;2023-02-23T11:55:38;15.43;;;7.23;;
18200;SDS011;9226;47.858;9.594;2023-02-23T11:58:15;16.47;;;7.33;;
18200;SDS011;9226;47.858;9.594;2023-02-23T12:00:57;14.83;;;6.87;;
18200;SDS011;9226;47.858;9.594;2023-02-23T12:03:25;18.13;;;7.40;;
18200;SDS011;9226;47.858;9.594;2023-02-23T12:05:53;19.17;;;7.30;;
18200;SDS011;9226;47.858;9.594;2023-02-23T12:11:02;16.50;;;7.57;;
18200;SDS011;9226;47.858;9.594;2023-02-23T12:13:37;12.27;;;7.20;;
18200;SDS011;9226;47.858;9.594;2023-02-23T12:18:59;13.63;;;6.77;;
18200;SDS011;9226;47.858;9.594;2023-02-23T12:21:34;15.00;;;6.30;;
18200;SDS011;9226;47.858;9.594;2023-02-23T12:26:49;20.20;;;6.73;;
18200;SDS011;9226;47.858;9.594;2023-02-23T12:32:22;13.87;;;6.43;;
18200;SDS011;9226;47.858;9.594;2023-02-23T12:34:59;13.90;;;6.30;;
18200;SDS011;9226;47.858;9.594;2023-02-23T12:37:33;16.90;;;6.27;;
18200;SDS011;9226;47.858;9.594;2023-02-23T12:45:50;12.83;;;5.80;;
18200;SDS011;9226;47.858;9.594;2023-02-23T12:51:00;12.80;;;5.93;;
18200;SDS011;9226;47.858;9.594;2023-02-23T12:53:36;16.30;;;6.27;;
18200;SDS011;9226;47.858;9.594;2023-02-23T12:56:29;11.80;;;6.13;;
18200;SDS011;9226;47.858;9.594;2023-02-23T13:01:35;14.40;;;6.67;;
18200;SDS011;9226;47.858;9.594;2023-02-23T13:04:13;15.13;;;6.17;;
18200;SDS011;9226;47.858;9.594;2023-02-23T13:07:00;11.50;;;5.27;;
18200;SDS011;9226;47.858;9.594;2023-02-23T13:12:42;14.43;;;5.83;;
18200;SDS011;9226;47.858;9.594;2023-02-23T13:15:29;14.17;;;5.30;;
18200;SDS011;9226;47.858;9.594;2023-02-23T13:18:13;10.37;;;4.40;;
18200;SDS011;9226;47.858;9.594;2023-02-23T13:20:57;18.97;;;4.83;;
18200;SDS011;9226;47.858;9.594;2023-02-23T13:26:15;10.33;;;4.90;;
18200;SDS011;9226;47.858;9.594;2023-02-23T13:28:49;11.83;;;5.60;;
18200;SDS011;9226;47.858;9.594;2023-02-23T13:31:24;11.97;;;5.37;;
18200;SDS011;9226;47.858;9.594;2023-02-23T13:33:53;10.83;;;5.30;;
18200;SDS011;9226;47.858;9.594;2023-02-23T13:36:21;13.00;;;4.90;;
18200;SDS011;9226;47.858;9.594;2023-02-23T13:44:28;12.77;;;5.27;;
18200;SDS011;9226;47.858;9.594;2023-02-23T13:50:14;14.40;;;5.70;;
18200;SDS011;9226;47.858;9.594;2023-02-23T13:53:04;12.77;;;6.00;;
18200;SDS011;9226;47.858;9.594;2023-02-23T13:55:33;13.17;;;5.17;;
18200;SDS011;9226;47.858;9.594;2023-02-23T13:58:05;18.23;;;6.13;;
18200;SDS011;9226;47.858;9.594;2023-02-23T14:00:39;11.37;;;5.37;;
18200;SDS011;9226;47.858;9.594;2023-02-23T14:03:05;13.10;;;5.50;;
18200;SDS011;9226;47.858;9.594;2023-02-23T14:05:40;15.10;;;5.23;;
18200;SDS011;9226;47.858;9.594;2023-02-23T14:08:17;13.43;;;5.43;;
18200;SDS011;9226;47.858;9.594;2023-02-23T14:11:01;11.53;;;6.17;;
18200;SDS011;9226;47.858;9.594;2023-02-23T14:14:13;15.03;;;5.67;;
18200;SDS011;9226;47.858;9.594;2023-02-23T14:16:24;11.50;;;5.33;;
18200;SDS011;9226;47.858;9.594;2023-02-23T14:18:53;12.30;;;5.83;;
18200;SDS011;9226;47.858;9.594;2023-02-23T14:21:27;18.33;;;5.60;;
18200;SDS011;9226;47.858;9.594;2023-02-23T14:24:03;15.13;;;5.47;;
18200;SDS011;9226;47.858;9.594;2023-02-23T14:26:37;12.67;;;5.43;;
18200;SDS011;9226;47.858;9.594;2023-02-23T14:29:21;13.90;;;5.13;;
18200;SDS011;9226;47.858;9.594;2023-02-23T14:37:23;12.93;;;5.10;;
18200;SDS011;9226;47.858;9.594;2023-02-23T14:42:38;17.17;;;5.60;;
18200;SDS011;9226;47.858;9.594;2023-02-23T14:45:25;16.60;;;5.97;;
18200;SDS011;9226;47.858;9.594;2023-02-23T14:47:54;12.97;;;5.60;;
18200;SDS011;9226;47.858;9.594;2023-02-23T14:50:32;15.03;;;5.53;;
18200;SDS011;9226;47.858;9.594;2023-02-23T14:52:59;10.33;;;5.20;;
18200;SDS011;9226;47.858;9.594;2023-02-23T14:55:28;11.73;;;5.90;;
18200;SDS011;9226;47.858;9.594;2023-02-23T14:57:56;12.67;;;5.20;;
18200;SDS011;9226;47.858;9.594;2023-02-23T15:00:24;11.50;;;4.90;;
18200;SDS011;9226;47.858;9.594;2023-02-23T15:02:56;13.30;;;4.63;;
18200;SDS011;9226;47.858;9.594;2023-02-23T15:05:23;12.30;;;4.33;;
18200;SDS011;9226;47.858;9.594;2023-02-23T15:07:55;15.20;;;3.70;;
18200;SDS011;9226;47.858;9.594;2023-02-23T15:10:25;9.30;;;4.47;;
18200;SDS011;9226;47.858;9.594;2023-02-23T15:12:53;9.03;;;4.33;;
18200;SDS011;9226;47.858;9.594;2023-02-23T15:15:21;11.43;;;4.17;;
18200;SDS011;9226;47.858;9.594;2023-02-23T15:17:49;15.07;;;4.43;;
18200;SDS011;9226;47.858;9.594;2023-02-23T15:20:18;10.80;;;4.70;;
18200;SDS011;9226;47.858;9.594;2023-02-23T15:22:56;13.20;;;4.77;;
18200;SDS011;9226;47.858;9.594;2023-02-23T15:25:24;13.17;;;4.83;;
18200;SDS011;9226;47.858;9.594;2023-02-23T15:27:57;13.73;;;4.87;;
18200;SDS011;9226;47.858;9.594;2023-02-23T15:32:53;18.97;;;5.30;;
18200;SDS011;9226;47.858;9.594;2023-02-23T15:38:48;13.13;;;5.40;;
18200;SDS011;9226;47.858;9.594;2023-02-23T15:43:49;13.40;;;5.23;;
18200;SDS011;9226;47.858;9.594;2023-02-23T15:46:19;15.33;;;5.53;;
18200;SDS011;9226;47.858;9.594;2023-02-23T15:48:49;13.00;;;5.57;;
18200;SDS011;9226;47.858;9.594;2023-02-23T15:51:20;15.07;;;6.27;;
18200;SDS011;9226;47.858;9.594;2023-02-23T15:53:53;17.07;;;5.83;;
18200;SDS011;9226;47.858;9.594;2023-02-23T15:56:24;17.17;;;6.10;;
18200;SDS011;9226;47.858;9.594;2023-02-23T15:58:54;16.40;;;5.43;;
18200;SDS011;9226;47.858;9.594;2023-02-23T16:01:22;16.13;;;7.10;;
18200;SDS011;9226;47.858;9.594;2023-02-23T16:04:00;18.87;;;5.40;;
18200;SDS011;9226;47.858;9.594;2023-02-23T16:06:33;10.97;;;5.27;;
18200;SDS011;9226;47.858;9.594;2023-02-23T16:09:10;15.07;;;5.37;;
18200;SDS011;9226;47.858;9.594;2023-02-23T16:11:46;15.33;;;5.97;;
18200;SDS011;9226;47.858;9.594;2023-02-23T16:14:14;15.77;;;6.00;;
18200;SDS011;9226;47.858;9.594;2023-02-23T16:16:41;12.77;;;4.43;;
18200;SDS011;9226;47.858;9.594;2023-02-23T16:19:10;13.33;;;5.33;;
18200;SDS011;9226;47.858;9.594;2023-02-23T16:21:38;9.73;;;4.63;;
18200;SDS011;9226;47.858;9.594;2023-02-23T16:24:08;15.37;;;4.83;;
18200;SDS011;9226;47.858;9.594;2023-02-23T16:27:11;14.47;;;4.87;;
18200;SDS011;9226;47.858;9.594;2023-02-23T16:29:36;13.07;;;5.93;;
18200;SDS011;9226;47.858;9.594;2023-02-23T16:32:16;13.43;;;4.97;;
18200;SDS011;9226;47.858;9.594;2023-02-23T16:34:47;17.53;;;5.37;;
18200;SDS011;9226;47.858;9.594;2023-02-23T16:37:22;14.03;;;5.23;;
18200;SDS011;9226;47.858;9.594;2023-02-23T16:39:50;12.60;;;4.23;;
18200;SDS011;9226;47.858;9.594;2023-02-23T16:42:29;20.47;;;4.70;;
18200;SDS011;9226;47.858;9.594;2023-02-23T16:44:57;9.27;;;3.93;;
18200;SDS011;9226;47.858;9.594;2023-02-23T16:49:49;31.13;;;4.73;;
18200;SDS011;9226;47.858;9.594;2023-02-23T16:52:16;11.53;;;3.77;;
18200;SDS011;9226;47.858;9.594;2023-02-23T16:54:43;12.57;;;4.33;;
18200;SDS011;9226;47.858;9.594;2023-02-23T16:57:46;7.43;;;4.20;;
18200;SDS011;9226;47.858;9.594;2023-02-23T17:00:05;17.87;;;6.20;;
18200;SDS011;9226;47.858;9.594;2023-02-23T17:02:38;15.77;;;4.80;;
18200;SDS011;9226;47.858;9.594;2023-02-23T17:05:08;11.90;;;4.97;;
18200;SDS011;9226;47.858;9.594;2023-02-23T17:07:37;23.87;;;6.10;;
18200;SDS011;9226;47.858;9.594;2023-02-23T17:10:04;24.57;;;6.23;;
18200;SDS011;9226;47.858;9.594;2023-02-23T17:12:30;19.30;;;6.30;;
18200;SDS011;9226;47.858;9.594;2023-02-23T17:14:56;20.47;;;6.50;;
18200;SDS011;9226;47.858;9.594;2023-02-23T17:17:21;15.00;;;6.87;;
18200;SDS011;9226;47.858;9.594;2023-02-23T17:19:47;18.03;;;7.73;;
18200;SDS011;9226;47.858;9.594;2023-02-23T17:22:12;18.33;;;8.67;;
18200;SDS011;9226;47.858;9.594;2023-02-23T17:24:39;19.93;;;7.50;;
18200;SDS011;9226;47.858;9.594;2023-02-23T17:27:05;12.93;;;7.17;;
18200;SDS011;9226;47.858;9.594;2023-02-23T17:29:31;20.10;;;7.60;;
18200;SDS011;9226;47.858;9.594;2023-02-23T17:31:56;22.80;;;7.70;;
18200;SDS011;9226;47.858;9.594;2023-02-23T17:34:25;18.90;;;8.67;;
18200;SDS011;9226;47.858;9.594;2023-02-23T17:36:51;22.13;;;9.37;;
18200;SDS011;9226;47.858;9.594;2023-02-23T17:39:16;25.50;;;10.53;;
18200;SDS011;9226;47.858;9.594;2023-02-23T17:41:42;28.33;;;11.87;;
18200;SDS011;9226;47.858;9.594;2023-02-23T17:44:08;31.30;;;13.03;;
18200;SDS011;9226;47.858;9.594;2023-02-23T17:46:34;34.83;;;14.67;;